sensor_id;sensor_type;location;lat;lon;timestamp;P1;durP1;ratioP1;P2;durP2;ratioP2
18973;SDS011;9621;48.690;9.466;2024-03-22T00:04:53;18.97;;;10.00;;
18973;SDS011;9621;48.690;9.466;2024-03-22T00:07:20;22.87;;;12.03;;
18973;SDS011;9621;48.690;9.466;2024-03-22T00:09:45;20.53;;;12.37;;
18973;SDS011;9621;48.690;9.466;2024-03-22T00:12:12;20.67;;;12.93;;
18973;SDS011;9621;48.690;9.466;2024-03-22T00:14:38;18.03;;;12.03;;
18973;SDS011;9621;48.690;9.466;2024-03-22T00:17:05;20.92;;;11.85;;
18973;SDS011;9621;48.690;9.466;2024-03-22T00:19:31;18.00;;;11.00;;
18973;SDS011;9621;48.690;9.466;2024-03-22T00:21:59;22.03;;;12.87;;
18973;SDS011;9621;48.690;9.466;2024-03-22T00:24:25;17.77;;;12.33;;
18973;SDS011;9621;48.690;9.466;2024-03-22T00:26:52;20.67;;;13.20;;
18973;SDS011;9621;48.690;9.466;2024-03-22T00:29:18;19.67;;;11.97;;
18973;SDS011;9621;48.690;9.466;2024-03-22T00:31:45;23.10;;;13.33;;
18973;SDS011;9621;48.690;9.466;2024-03-22T00:34:11;17.83;;;11.87;;
18973;SDS011;9621;48.690;9.466;2024-03-22T00:36:37;18.77;;;11.70;;
18973;SDS011;9621;48.690;9.466;2024-03-22T00:39:05;18.60;;;11.43;;
18973;SDS011;9621;48.690;9.466;2024-03-22T00:41:31;16.47;;;11.17;;
18973;SDS011;9621;48.690;9.466;2024-03-22T00:43:57;17.97;;;11.90;;
18973;SDS011;9621;48.690;9.466;2024-03-22T00:46:24;22.33;;;13.77;;
18973;SDS011;9621;48.690;9.466;2024-03-22T00:48:50;18.27;;;12.20;;
18973;SDS011;9621;48.690;9.466;2024-03-22T00:51:17;18.80;;;12.57;;
18973;SDS011;9621;48.690;9.466;2024-03-22T00:53:43;20.33;;;11.87;;
18973;SDS011;9621;48.690;9.466;2024-03-22T00:56:12;17.53;;;11.90;;
18973;SDS011;9621;48.690;9.466;2024-03-22T00:58:37;16.97;;;11.83;;
18973;SDS011;9621;48.690;9.466;2024-03-22T01:01:06;21.33;;;12.90;;
18973;SDS011;9621;48.690;9.466;2024-03-22T01:03:32;22.43;;;12.63;;
18973;SDS011;9621;48.690;9.466;2024-03-22T01:05:59;16.23;;;11.07;;
18973;SDS011;9621;48.690;9.466;2024-03-22T01:08:25;21.10;;;12.20;;
18973;SDS011;9621;48.690;9.466;2024-03-22T01:10:52;17.47;;;11.63;;
18973;SDS011;9621;48.690;9.466;2024-03-22T01:13:20;20.60;;;12.07;;
18973;SDS011;9621;48.690;9.466;2024-03-22T01:15:47;22.50;;;12.27;;
18973;SDS011;9621;48.690;9.466;2024-03-22T01:18:13;21.97;;;12.80;;
18973;SDS011;9621;48.690;9.466;2024-03-22T01:20:39;18.70;;;12.20;;
18973;SDS011;9621;48.690;9.466;2024-03-22T01:23:07;20.27;;;12.73;;
18973;SDS011;9621;48.690;9.466;2024-03-22T01:25:34;19.40;;;12.30;;
18973;SDS011;9621;48.690;9.466;2024-03-22T01:28:00;18.83;;;13.07;;
18973;SDS011;9621;48.690;9.466;2024-03-22T01:30:31;21.17;;;13.27;;
18973;SDS011;9621;48.690;9.466;2024-03-22T01:32:58;23.70;;;13.57;;
18973;SDS011;9621;48.690;9.466;2024-03-22T01:35:25;20.87;;;12.87;;
18973;SDS011;9621;48.690;9.466;2024-03-22T01:37:51;18.50;;;12.20;;
18973;SDS011;9621;48.690;9.466;2024-03-22T01:40:18;18.90;;;12.20;;
18973;SDS011;9621;48.690;9.466;2024-03-22T01:42:44;17.43;;;12.30;;
18973;SDS011;9621;48.690;9.466;2024-03-22T01:45:11;18.57;;;12.40;;
18973;SDS011;9621;48.690;9.466;2024-03-22T01:47:41;19.17;;;13.27;;
18973;SDS011;9621;48.690;9.466;2024-03-22T01:50:08;20.10;;;13.90;;
18973;SDS011;9621;48.690;9.466;2024-03-22T01:52:37;20.33;;;13.63;;
18973;SDS011;9621;48.690;9.466;2024-03-22T01:55:05;20.77;;;13.10;;
18973;SDS011;9621;48.690;9.466;2024-03-22T01:57:32;19.40;;;13.67;;
18973;SDS011;9621;48.690;9.466;2024-03-22T01:59:59;20.27;;;12.87;;
18973;SDS011;9621;48.690;9.466;2024-03-22T02:02:25;19.17;;;13.47;;
18973;SDS011;9621;48.690;9.466;2024-03-22T02:04:54;23.00;;;12.97;;
18973;SDS011;9621;48.690;9.466;2024-03-22T02:07:21;18.73;;;12.40;;
18973;SDS011;9621;48.690;9.466;2024-03-22T02:09:48;21.03;;;13.27;;
18973;SDS011;9621;48.690;9.466;2024-03-22T02:12:14;19.73;;;11.87;;
18973;SDS011;9621;48.690;9.466;2024-03-22T02:14:41;20.53;;;12.63;;
18973;SDS011;9621;48.690;9.466;2024-03-22T02:17:07;19.00;;;13.20;;
18973;SDS011;9621;48.690;9.466;2024-03-22T02:19:34;18.67;;;11.97;;
18973;SDS011;9621;48.690;9.466;2024-03-22T02:22:01;23.60;;;14.83;;
18973;SDS011;9621;48.690;9.466;2024-03-22T02:24:29;25.53;;;14.50;;
18973;SDS011;9621;48.690;9.466;2024-03-22T02:26:55;22.10;;;14.13;;
18973;SDS011;9621;48.690;9.466;2024-03-22T02:29:22;21.40;;;14.47;;
18973;SDS011;9621;48.690;9.466;2024-03-22T02:31:48;21.47;;;13.53;;
18973;SDS011;9621;48.690;9.466;2024-03-22T02:34:15;21.73;;;13.33;;
18973;SDS011;9621;48.690;9.466;2024-03-22T02:36:41;20.70;;;13.10;;
18973;SDS011;9621;48.690;9.466;2024-03-22T02:39:07;21.83;;;13.73;;
18973;SDS011;9621;48.690;9.466;2024-03-22T02:41:35;22.03;;;14.87;;
18973;SDS011;9621;48.690;9.466;2024-03-22T02:44:01;23.73;;;13.43;;
18973;SDS011;9621;48.690;9.466;2024-03-22T02:46:27;21.40;;;13.40;;
18973;SDS011;9621;48.690;9.466;2024-03-22T02:48:54;21.00;;;13.60;;
18973;SDS011;9621;48.690;9.466;2024-03-22T02:51:20;20.13;;;13.77;;
18973;SDS011;9621;48.690;9.466;2024-03-22T02:53:47;22.20;;;13.30;;
18973;SDS011;9621;48.690;9.466;2024-03-22T02:56:13;20.60;;;13.57;;
18973;SDS011;9621;48.690;9.466;2024-03-22T02:58:43;20.80;;;13.50;;
18973;SDS011;9621;48.690;9.466;2024-03-22T03:01:08;21.13;;;13.63;;
18973;SDS011;9621;48.690;9.466;2024-03-22T03:03:35;20.10;;;12.90;;
18973;SDS011;9621;48.690;9.466;2024-03-22T03:06:01;18.30;;;13.07;;
18973;SDS011;9621;48.690;9.466;2024-03-22T03:08:28;25.53;;;13.90;;
18973;SDS011;9621;48.690;9.466;2024-03-22T03:10:54;21.30;;;13.43;;
18973;SDS011;9621;48.690;9.466;2024-03-22T03:13:21;21.20;;;14.07;;
18973;SDS011;9621;48.690;9.466;2024-03-22T03:15:48;23.43;;;14.30;;
18973;SDS011;9621;48.690;9.466;2024-03-22T03:18:15;25.00;;;14.97;;
18973;SDS011;9621;48.690;9.466;2024-03-22T03:20:41;21.87;;;15.77;;
18973;SDS011;9621;48.690;9.466;2024-03-22T03:23:08;23.60;;;13.80;;
18973;SDS011;9621;48.690;9.466;2024-03-22T03:25:34;21.30;;;13.27;;
18973;SDS011;9621;48.690;9.466;2024-03-22T03:28:01;21.57;;;14.73;;
18973;SDS011;9621;48.690;9.466;2024-03-22T03:30:27;22.83;;;14.57;;
18973;SDS011;9621;48.690;9.466;2024-03-22T03:32:55;24.50;;;13.93;;
18973;SDS011;9621;48.690;9.466;2024-03-22T03:35:21;19.40;;;13.47;;
18973;SDS011;9621;48.690;9.466;2024-03-22T03:37:49;21.97;;;14.33;;
18973;SDS011;9621;48.690;9.466;2024-03-22T03:40:15;21.90;;;14.50;;
18973;SDS011;9621;48.690;9.466;2024-03-22T03:42:41;23.17;;;14.17;;
18973;SDS011;9621;48.690;9.466;2024-03-22T03:45:07;24.33;;;13.63;;
18973;SDS011;9621;48.690;9.466;2024-03-22T03:47:34;22.50;;;14.60;;
18973;SDS011;9621;48.690;9.466;2024-03-22T03:50:02;26.00;;;14.53;;
18973;SDS011;9621;48.690;9.466;2024-03-22T03:52:29;25.53;;;16.03;;
18973;SDS011;9621;48.690;9.466;2024-03-22T03:54:55;23.63;;;15.33;;
18973;SDS011;9621;48.690;9.466;2024-03-22T03:57:22;24.73;;;15.17;;
18973;SDS011;9621;48.690;9.466;2024-03-22T03:59:47;22.17;;;13.83;;
18973;SDS011;9621;48.690;9.466;2024-03-22T04:02:15;25.27;;;15.13;;
18973;SDS011;9621;48.690;9.466;2024-03-22T04:04:40;23.30;;;15.17;;
18973;SDS011;9621;48.690;9.466;2024-03-22T04:07:09;23.10;;;14.73;;
18973;SDS011;9621;48.690;9.466;2024-03-22T04:09:35;22.53;;;14.77;;
18973;SDS011;9621;48.690;9.466;2024-03-22T04:12:01;23.03;;;15.73;;
18973;SDS011;9621;48.690;9.466;2024-03-22T04:14:27;24.63;;;14.27;;
18973;SDS011;9621;48.690;9.466;2024-03-22T04:16:54;19.70;;;13.43;;
18973;SDS011;9621;48.690;9.466;2024-03-22T04:19:21;19.77;;;13.17;;
18973;SDS011;9621;48.690;9.466;2024-03-22T04:21:49;21.97;;;13.63;;
18973;SDS011;9621;48.690;9.466;2024-03-22T04:24:16;27.77;;;14.23;;
18973;SDS011;9621;48.690;9.466;2024-03-22T04:26:43;19.77;;;14.00;;
18973;SDS011;9621;48.690;9.466;2024-03-22T04:29:09;23.30;;;15.30;;
18973;SDS011;9621;48.690;9.466;2024-03-22T04:31:36;24.90;;;15.23;;
18973;SDS011;9621;48.690;9.466;2024-03-22T04:34:02;22.73;;;15.23;;
18973;SDS011;9621;48.690;9.466;2024-03-22T04:36:30;20.27;;;13.67;;
18973;SDS011;9621;48.690;9.466;2024-03-22T04:38:56;26.43;;;14.03;;
18973;SDS011;9621;48.690;9.466;2024-03-22T04:41:25;17.50;;;12.73;;
18973;SDS011;9621;48.690;9.466;2024-03-22T04:43:52;20.47;;;12.37;;
18973;SDS011;9621;48.690;9.466;2024-03-22T04:46:18;20.97;;;12.60;;
18973;SDS011;9621;48.690;9.466;2024-03-22T04:48:44;19.33;;;11.90;;
18973;SDS011;9621;48.690;9.466;2024-03-22T04:51:10;18.50;;;12.00;;
18973;SDS011;9621;48.690;9.466;2024-03-22T04:53:37;23.03;;;12.80;;
18973;SDS011;9621;48.690;9.466;2024-03-22T04:56:03;17.80;;;12.73;;
18973;SDS011;9621;48.690;9.466;2024-03-22T04:58:33;18.73;;;12.70;;
18973;SDS011;9621;48.690;9.466;2024-03-22T05:00:59;20.50;;;13.53;;
18973;SDS011;9621;48.690;9.466;2024-03-22T05:03:27;21.13;;;12.77;;
18973;SDS011;9621;48.690;9.466;2024-03-22T05:05:52;18.97;;;12.87;;
18973;SDS011;9621;48.690;9.466;2024-03-22T05:08:20;19.40;;;13.20;;
18973;SDS011;9621;48.690;9.466;2024-03-22T05:10:46;22.07;;;12.80;;
18973;SDS011;9621;48.690;9.466;2024-03-22T05:13:13;21.23;;;13.53;;
18973;SDS011;9621;48.690;9.466;2024-03-22T05:15:41;18.33;;;12.77;;
18973;SDS011;9621;48.690;9.466;2024-03-22T05:18:08;23.00;;;13.17;;
18973;SDS011;9621;48.690;9.466;2024-03-22T05:20:33;20.63;;;13.43;;
18973;SDS011;9621;48.690;9.466;2024-03-22T05:23:01;30.10;;;17.67;;
18973;SDS011;9621;48.690;9.466;2024-03-22T05:25:27;35.30;;;18.63;;
18973;SDS011;9621;48.690;9.466;2024-03-22T05:27:54;27.23;;;16.07;;
18973;SDS011;9621;48.690;9.466;2024-03-22T05:30:20;21.20;;;13.37;;
18973;SDS011;9621;48.690;9.466;2024-03-22T05:32:49;21.63;;;13.63;;
18973;SDS011;9621;48.690;9.466;2024-03-22T05:35:15;20.93;;;13.37;;
18973;SDS011;9621;48.690;9.466;2024-03-22T05:37:43;20.87;;;13.50;;
18973;SDS011;9621;48.690;9.466;2024-03-22T05:40:10;21.90;;;14.30;;
18973;SDS011;9621;48.690;9.466;2024-03-22T05:42:37;22.93;;;13.33;;
18973;SDS011;9621;48.690;9.466;2024-03-22T05:45:04;21.33;;;13.23;;
18973;SDS011;9621;48.690;9.466;2024-03-22T05:47:31;20.03;;;12.37;;
18973;SDS011;9621;48.690;9.466;2024-03-22T05:49:59;22.83;;;14.10;;
18973;SDS011;9621;48.690;9.466;2024-03-22T05:52:26;23.97;;;15.03;;
18973;SDS011;9621;48.690;9.466;2024-03-22T05:54:53;24.50;;;14.93;;
18973;SDS011;9621;48.690;9.466;2024-03-22T05:57:20;24.57;;;14.80;;
18973;SDS011;9621;48.690;9.466;2024-03-22T05:59:46;20.77;;;12.97;;
18973;SDS011;9621;48.690;9.466;2024-03-22T06:02:14;20.80;;;13.33;;
18973;SDS011;9621;48.690;9.466;2024-03-22T06:04:41;21.90;;;12.57;;
18973;SDS011;9621;48.690;9.466;2024-03-22T06:07:09;24.93;;;13.10;;
18973;SDS011;9621;48.690;9.466;2024-03-22T06:09:35;17.97;;;12.77;;
18973;SDS011;9621;48.690;9.466;2024-03-22T06:12:03;20.80;;;12.60;;
18973;SDS011;9621;48.690;9.466;2024-03-22T06:14:30;19.33;;;12.67;;
18973;SDS011;9621;48.690;9.466;2024-03-22T06:16:57;18.20;;;12.73;;
18973;SDS011;9621;48.690;9.466;2024-03-22T06:19:23;17.60;;;12.33;;
18973;SDS011;9621;48.690;9.466;2024-03-22T06:21:49;17.63;;;11.90;;
18973;SDS011;9621;48.690;9.466;2024-03-22T06:24:18;20.33;;;12.60;;
18973;SDS011;9621;48.690;9.466;2024-03-22T06:26:44;19.80;;;13.17;;
18973;SDS011;9621;48.690;9.466;2024-03-22T06:29:12;18.90;;;12.47;;
18973;SDS011;9621;48.690;9.466;2024-03-22T06:31:40;18.60;;;12.87;;
18973;SDS011;9621;48.690;9.466;2024-03-22T06:34:07;20.23;;;12.73;;
18973;SDS011;9621;48.690;9.466;2024-03-22T06:36:33;23.97;;;14.07;;
18973;SDS011;9621;48.690;9.466;2024-03-22T06:39:00;22.57;;;13.70;;
18973;SDS011;9621;48.690;9.466;2024-03-22T06:41:27;24.55;;;13.30;;
18973;SDS011;9621;48.690;9.466;2024-03-22T06:43:55;21.20;;;13.40;;
18973;SDS011;9621;48.690;9.466;2024-03-22T06:46:21;18.38;;;12.57;;
18973;SDS011;9621;48.690;9.466;2024-03-22T06:48:48;18.20;;;12.82;;
18973;SDS011;9621;48.690;9.466;2024-03-22T06:51:14;17.52;;;12.65;;
18973;SDS011;9621;48.690;9.466;2024-03-22T06:53:41;18.23;;;12.25;;
18973;SDS011;9621;48.690;9.466;2024-03-22T06:56:06;18.17;;;12.32;;
18973;SDS011;9621;48.690;9.466;2024-03-22T06:58:38;15.85;;;12.15;;
18973;SDS011;9621;48.690;9.466;2024-03-22T07:01:04;17.90;;;11.73;;
18973;SDS011;9621;48.690;9.466;2024-03-22T07:03:31;19.73;;;13.07;;
18973;SDS011;9621;48.690;9.466;2024-03-22T07:05:57;19.38;;;12.80;;
18973;SDS011;9621;48.690;9.466;2024-03-22T07:08:24;18.33;;;12.25;;
18973;SDS011;9621;48.690;9.466;2024-03-22T07:10:50;20.45;;;12.65;;
18973;SDS011;9621;48.690;9.466;2024-03-22T07:13:18;19.75;;;14.07;;
18973;SDS011;9621;48.690;9.466;2024-03-22T07:15:45;24.35;;;12.38;;
18973;SDS011;9621;48.690;9.466;2024-03-22T07:18:12;21.10;;;12.98;;
18973;SDS011;9621;48.690;9.466;2024-03-22T07:20:38;17.52;;;12.20;;
18973;SDS011;9621;48.690;9.466;2024-03-22T07:23:05;19.08;;;12.38;;
18973;SDS011;9621;48.690;9.466;2024-03-22T07:25:31;17.30;;;11.75;;
18973;SDS011;9621;48.690;9.466;2024-03-22T07:27:58;14.82;;;11.18;;
18973;SDS011;9621;48.690;9.466;2024-03-22T07:30:24;16.40;;;11.35;;
18973;SDS011;9621;48.690;9.466;2024-03-22T07:32:52;20.70;;;11.55;;
18973;SDS011;9621;48.690;9.466;2024-03-22T07:35:18;15.38;;;10.38;;
18973;SDS011;9621;48.690;9.466;2024-03-22T07:37:45;15.73;;;11.48;;
18973;SDS011;9621;48.690;9.466;2024-03-22T07:40:11;15.18;;;10.43;;
18973;SDS011;9621;48.690;9.466;2024-03-22T07:42:38;15.32;;;10.77;;
18973;SDS011;9621;48.690;9.466;2024-03-22T07:45:04;15.10;;;10.55;;
18973;SDS011;9621;48.690;9.466;2024-03-22T07:47:31;14.20;;;10.48;;
18973;SDS011;9621;48.690;9.466;2024-03-22T07:49:58;15.43;;;10.52;;
18973;SDS011;9621;48.690;9.466;2024-03-22T07:52:25;16.98;;;10.00;;
18973;SDS011;9621;48.690;9.466;2024-03-22T07:54:51;18.30;;;10.02;;
18973;SDS011;9621;48.690;9.466;2024-03-22T07:57:18;12.40;;;9.82;;
18973;SDS011;9621;48.690;9.466;2024-03-22T07:59:45;15.65;;;10.10;;
18973;SDS011;9621;48.690;9.466;2024-03-22T08:02:12;13.68;;;9.85;;
18973;SDS011;9621;48.690;9.466;2024-03-22T08:04:38;13.95;;;9.82;;
18973;SDS011;9621;48.690;9.466;2024-03-22T08:07:06;18.55;;;9.38;;
18973;SDS011;9621;48.690;9.466;2024-03-22T08:09:32;12.60;;;9.23;;
18973;SDS011;9621;48.690;9.466;2024-03-22T08:11:59;12.93;;;8.63;;
18973;SDS011;9621;48.690;9.466;2024-03-22T08:14:25;14.45;;;8.98;;
18973;SDS011;9621;48.690;9.466;2024-03-22T08:16:52;11.50;;;8.48;;
18973;SDS011;9621;48.690;9.466;2024-03-22T08:19:18;14.10;;;8.82;;
18973;SDS011;9621;48.690;9.466;2024-03-22T08:21:45;14.38;;;8.93;;
18973;SDS011;9621;48.690;9.466;2024-03-22T08:24:12;12.98;;;8.63;;
18973;SDS011;9621;48.690;9.466;2024-03-22T08:26:39;11.90;;;8.68;;
18973;SDS011;9621;48.690;9.466;2024-03-22T08:29:05;10.68;;;8.07;;
18973;SDS011;9621;48.690;9.466;2024-03-22T08:31:32;10.82;;;8.70;;
18973;SDS011;9621;48.690;9.466;2024-03-22T08:33:58;11.15;;;8.23;;
18973;SDS011;9621;48.690;9.466;2024-03-22T08:36:26;13.52;;;7.97;;
18973;SDS011;9621;48.690;9.466;2024-03-22T08:38:52;12.43;;;7.97;;
18973;SDS011;9621;48.690;9.466;2024-03-22T08:41:21;8.38;;;7.22;;
18973;SDS011;9621;48.690;9.466;2024-03-22T08:43:46;11.65;;;7.57;;
18973;SDS011;9621;48.690;9.466;2024-03-22T08:46:13;10.82;;;7.03;;
18973;SDS011;9621;48.690;9.466;2024-03-22T08:48:39;9.13;;;6.80;;
18973;SDS011;9621;48.690;9.466;2024-03-22T08:51:06;8.50;;;5.93;;
18973;SDS011;9621;48.690;9.466;2024-03-22T08:53:32;9.43;;;5.90;;
18973;SDS011;9621;48.690;9.466;2024-03-22T08:55:59;8.70;;;6.78;;
18973;SDS011;9621;48.690;9.466;2024-03-22T08:58:28;9.55;;;6.80;;
18973;SDS011;9621;48.690;9.466;2024-03-22T09:00:55;9.77;;;6.38;;
18973;SDS011;9621;48.690;9.466;2024-03-22T09:03:22;11.25;;;6.15;;
18973;SDS011;9621;48.690;9.466;2024-03-22T09:05:52;8.98;;;6.00;;
18973;SDS011;9621;48.690;9.466;2024-03-22T09:08:18;8.18;;;5.95;;
18973;SDS011;9621;48.690;9.466;2024-03-22T09:10:46;10.93;;;5.82;;
18973;SDS011;9621;48.690;9.466;2024-03-22T09:13:12;9.35;;;6.03;;
18973;SDS011;9621;48.690;9.466;2024-03-22T09:15:40;8.75;;;5.85;;
18973;SDS011;9621;48.690;9.466;2024-03-22T09:18:06;8.13;;;5.60;;
18973;SDS011;9621;48.690;9.466;2024-03-22T09:20:33;7.72;;;5.28;;
18973;SDS011;9621;48.690;9.466;2024-03-22T09:22:59;8.80;;;6.13;;
18973;SDS011;9621;48.690;9.466;2024-03-22T09:25:26;7.63;;;5.50;;
18973;SDS011;9621;48.690;9.466;2024-03-22T09:27:52;7.60;;;5.10;;
18973;SDS011;9621;48.690;9.466;2024-03-22T09:30:19;8.77;;;5.20;;
18973;SDS011;9621;48.690;9.466;2024-03-22T09:32:47;7.40;;;4.93;;
18973;SDS011;9621;48.690;9.466;2024-03-22T09:35:13;6.78;;;4.93;;
18973;SDS011;9621;48.690;9.466;2024-03-22T09:37:39;7.60;;;5.03;;
18973;SDS011;9621;48.690;9.466;2024-03-22T09:40:07;6.60;;;4.07;;
18973;SDS011;9621;48.690;9.466;2024-03-22T09:42:33;6.20;;;4.90;;
18973;SDS011;9621;48.690;9.466;2024-03-22T09:45:07;7.75;;;5.43;;
18973;SDS011;9621;48.690;9.466;2024-03-22T09:47:35;9.52;;;5.93;;
18973;SDS011;9621;48.690;9.466;2024-03-22T09:50:05;7.05;;;5.07;;
18973;SDS011;9621;48.690;9.466;2024-03-22T09:52:32;8.32;;;4.75;;
18973;SDS011;9621;48.690;9.466;2024-03-22T09:54:59;8.15;;;5.07;;
18973;SDS011;9621;48.690;9.466;2024-03-22T09:57:28;5.78;;;5.05;;
18973;SDS011;9621;48.690;9.466;2024-03-22T09:59:57;8.43;;;5.95;;
18973;SDS011;9621;48.690;9.466;2024-03-22T10:02:23;8.30;;;5.68;;
18973;SDS011;9621;48.690;9.466;2024-03-22T10:04:51;9.55;;;5.30;;
18973;SDS011;9621;48.690;9.466;2024-03-22T10:07:18;7.97;;;4.85;;
18973;SDS011;9621;48.690;9.466;2024-03-22T10:09:45;7.97;;;4.30;;
18973;SDS011;9621;48.690;9.466;2024-03-22T10:12:11;8.32;;;5.28;;
18973;SDS011;9621;48.690;9.466;2024-03-22T10:14:38;6.70;;;4.40;;
18973;SDS011;9621;48.690;9.466;2024-03-22T10:17:07;8.85;;;4.25;;
18973;SDS011;9621;48.690;9.466;2024-03-22T10:19:34;5.65;;;3.65;;
18973;SDS011;9621;48.690;9.466;2024-03-22T10:22:01;5.53;;;3.78;;
18973;SDS011;9621;48.690;9.466;2024-03-22T10:24:30;10.27;;;4.60;;
18973;SDS011;9621;48.690;9.466;2024-03-22T10:26:57;5.97;;;3.92;;
18973;SDS011;9621;48.690;9.466;2024-03-22T10:29:24;7.72;;;4.35;;
18973;SDS011;9621;48.690;9.466;2024-03-22T10:31:51;8.27;;;4.40;;
18973;SDS011;9621;48.690;9.466;2024-03-22T10:34:20;5.00;;;4.07;;
18973;SDS011;9621;48.690;9.466;2024-03-22T10:36:46;5.05;;;3.80;;
18973;SDS011;9621;48.690;9.466;2024-03-22T10:39:15;8.25;;;4.05;;
18973;SDS011;9621;48.690;9.466;2024-03-22T10:41:43;5.90;;;4.15;;
18973;SDS011;9621;48.690;9.466;2024-03-22T10:44:10;5.80;;;3.47;;
18973;SDS011;9621;48.690;9.466;2024-03-22T10:46:37;6.13;;;4.28;;
18973;SDS011;9621;48.690;9.466;2024-03-22T10:49:09;6.60;;;3.97;;
18973;SDS011;9621;48.690;9.466;2024-03-22T10:51:40;6.68;;;3.88;;
18973;SDS011;9621;48.690;9.466;2024-03-22T10:54:08;7.25;;;4.50;;
18973;SDS011;9621;48.690;9.466;2024-03-22T10:56:36;8.38;;;4.30;;
18973;SDS011;9621;48.690;9.466;2024-03-22T10:59:04;5.60;;;3.72;;
18973;SDS011;9621;48.690;9.466;2024-03-22T11:01:31;8.52;;;4.00;;
18973;SDS011;9621;48.690;9.466;2024-03-22T11:04:04;7.25;;;4.22;;
18973;SDS011;9621;48.690;9.466;2024-03-22T11:06:31;7.60;;;3.33;;
18973;SDS011;9621;48.690;9.466;2024-03-22T11:08:59;4.93;;;3.95;;
18973;SDS011;9621;48.690;9.466;2024-03-22T11:11:28;6.93;;;3.78;;
18973;SDS011;9621;48.690;9.466;2024-03-22T11:13:54;7.35;;;3.83;;
18973;SDS011;9621;48.690;9.466;2024-03-22T11:16:23;7.70;;;4.00;;
18973;SDS011;9621;48.690;9.466;2024-03-22T11:18:49;7.53;;;3.78;;
18973;SDS011;9621;48.690;9.466;2024-03-22T11:21:16;5.47;;;3.63;;
18973;SDS011;9621;48.690;9.466;2024-03-22T11:23:44;5.72;;;3.60;;
18973;SDS011;9621;48.690;9.466;2024-03-22T11:26:12;6.68;;;3.60;;
18973;SDS011;9621;48.690;9.466;2024-03-22T11:28:38;5.47;;;3.40;;
18973;SDS011;9621;48.690;9.466;2024-03-22T11:31:05;5.07;;;3.00;;
18973;SDS011;9621;48.690;9.466;2024-03-22T11:33:32;5.18;;;3.30;;
18973;SDS011;9621;48.690;9.466;2024-03-22T11:36:01;9.70;;;3.78;;
18973;SDS011;9621;48.690;9.466;2024-03-22T11:38:29;8.75;;;3.40;;
18973;SDS011;9621;48.690;9.466;2024-03-22T11:40:57;6.32;;;3.30;;
18973;SDS011;9621;48.690;9.466;2024-03-22T11:43:25;6.90;;;3.47;;
18973;SDS011;9621;48.690;9.466;2024-03-22T11:45:53;6.18;;;3.28;;
18973;SDS011;9621;48.690;9.466;2024-03-22T11:48:19;4.75;;;2.95;;
18973;SDS011;9621;48.690;9.466;2024-03-22T11:50:47;4.07;;;2.97;;
18973;SDS011;9621;48.690;9.466;2024-03-22T11:53:15;5.93;;;3.53;;
18973;SDS011;9621;48.690;9.466;2024-03-22T11:55:42;6.53;;;3.20;;
18973;SDS011;9621;48.690;9.466;2024-03-22T11:58:08;7.00;;;3.15;;
18973;SDS011;9621;48.690;9.466;2024-03-22T12:00:35;4.78;;;3.28;;
18973;SDS011;9621;48.690;9.466;2024-03-22T12:03:03;4.10;;;3.03;;
18973;SDS011;9621;48.690;9.466;2024-03-22T12:05:31;5.30;;;2.92;;
18973;SDS011;9621;48.690;9.466;2024-03-22T12:07:58;5.85;;;2.88;;
18973;SDS011;9621;48.690;9.466;2024-03-22T12:10:25;5.35;;;2.72;;
18973;SDS011;9621;48.690;9.466;2024-03-22T12:12:51;4.63;;;2.80;;
18973;SDS011;9621;48.690;9.466;2024-03-22T12:15:19;5.88;;;2.72;;
18973;SDS011;9621;48.690;9.466;2024-03-22T12:17:44;5.40;;;3.85;;
18973;SDS011;9621;48.690;9.466;2024-03-22T12:20:11;6.07;;;3.78;;
18973;SDS011;9621;48.690;9.466;2024-03-22T12:22:39;4.88;;;3.45;;
18973;SDS011;9621;48.690;9.466;2024-03-22T12:25:08;5.22;;;3.05;;
18973;SDS011;9621;48.690;9.466;2024-03-22T12:27:36;5.05;;;2.97;;
18973;SDS011;9621;48.690;9.466;2024-03-22T12:30:03;5.68;;;2.80;;
18973;SDS011;9621;48.690;9.466;2024-03-22T12:32:31;7.13;;;2.90;;
18973;SDS011;9621;48.690;9.466;2024-03-22T12:34:58;4.18;;;2.78;;
18973;SDS011;9621;48.690;9.466;2024-03-22T12:37:24;4.93;;;2.83;;
18973;SDS011;9621;48.690;9.466;2024-03-22T12:39:51;5.15;;;2.83;;
18973;SDS011;9621;48.690;9.466;2024-03-22T12:42:18;7.53;;;3.10;;
18973;SDS011;9621;48.690;9.466;2024-03-22T12:44:45;7.03;;;3.33;;
18973;SDS011;9621;48.690;9.466;2024-03-22T12:47:11;4.90;;;3.13;;
18973;SDS011;9621;48.690;9.466;2024-03-22T12:49:38;5.72;;;3.20;;
18973;SDS011;9621;48.690;9.466;2024-03-22T12:52:04;5.45;;;3.15;;
18973;SDS011;9621;48.690;9.466;2024-03-22T12:54:32;5.82;;;3.40;;
18973;SDS011;9621;48.690;9.466;2024-03-22T12:56:58;5.72;;;2.70;;
18973;SDS011;9621;48.690;9.466;2024-03-22T12:59:27;5.18;;;2.88;;
18973;SDS011;9621;48.690;9.466;2024-03-22T13:01:53;3.90;;;2.88;;
18973;SDS011;9621;48.690;9.466;2024-03-22T13:04:20;5.70;;;3.33;;
18973;SDS011;9621;48.690;9.466;2024-03-22T13:06:46;3.97;;;2.90;;
18973;SDS011;9621;48.690;9.466;2024-03-22T13:09:13;5.25;;;3.13;;
18973;SDS011;9621;48.690;9.466;2024-03-22T13:11:40;3.83;;;2.80;;
18973;SDS011;9621;48.690;9.466;2024-03-22T13:14:07;5.43;;;2.83;;
18973;SDS011;9621;48.690;9.466;2024-03-22T13:16:35;5.15;;;3.15;;
18973;SDS011;9621;48.690;9.466;2024-03-22T13:19:02;3.65;;;3.00;;
18973;SDS011;9621;48.690;9.466;2024-03-22T13:21:30;4.20;;;3.10;;
18973;SDS011;9621;48.690;9.466;2024-03-22T13:23:57;5.40;;;3.00;;
18973;SDS011;9621;48.690;9.466;2024-03-22T13:26:23;4.00;;;2.97;;
18973;SDS011;9621;48.690;9.466;2024-03-22T13:28:50;7.35;;;3.15;;
18973;SDS011;9621;48.690;9.466;2024-03-22T13:31:16;5.28;;;2.85;;
18973;SDS011;9621;48.690;9.466;2024-03-22T13:33:45;4.28;;;3.10;;
18973;SDS011;9621;48.690;9.466;2024-03-22T13:36:12;3.72;;;2.67;;
18973;SDS011;9621;48.690;9.466;2024-03-22T13:38:39;5.05;;;3.00;;
18973;SDS011;9621;48.690;9.466;2024-03-22T13:41:05;6.38;;;3.30;;
18973;SDS011;9621;48.690;9.466;2024-03-22T13:43:32;4.78;;;2.53;;
18973;SDS011;9621;48.690;9.466;2024-03-22T13:45:58;4.95;;;2.90;;
18973;SDS011;9621;48.690;9.466;2024-03-22T13:48:27;4.07;;;2.58;;
18973;SDS011;9621;48.690;9.466;2024-03-22T13:50:54;5.13;;;3.20;;
18973;SDS011;9621;48.690;9.466;2024-03-22T13:53:21;4.18;;;2.70;;
18973;SDS011;9621;48.690;9.466;2024-03-22T13:55:48;4.63;;;2.78;;
18973;SDS011;9621;48.690;9.466;2024-03-22T13:58:15;3.85;;;2.60;;
18973;SDS011;9621;48.690;9.466;2024-03-22T14:00:41;3.92;;;2.20;;
18973;SDS011;9621;48.690;9.466;2024-03-22T14:03:08;4.22;;;2.25;;
18973;SDS011;9621;48.690;9.466;2024-03-22T14:05:34;4.32;;;2.50;;
18973;SDS011;9621;48.690;9.466;2024-03-22T14:08:02;5.00;;;2.13;;
18973;SDS011;9621;48.690;9.466;2024-03-22T14:10:28;4.95;;;2.58;;
18973;SDS011;9621;48.690;9.466;2024-03-22T14:12:56;3.72;;;2.45;;
18973;SDS011;9621;48.690;9.466;2024-03-22T14:15:22;3.03;;;2.30;;
18973;SDS011;9621;48.690;9.466;2024-03-22T14:17:51;4.07;;;2.63;;
18973;SDS011;9621;48.690;9.466;2024-03-22T14:20:17;2.95;;;1.95;;
18973;SDS011;9621;48.690;9.466;2024-03-22T14:22:44;3.45;;;1.98;;
18973;SDS011;9621;48.690;9.466;2024-03-22T14:25:12;4.35;;;2.17;;
18973;SDS011;9621;48.690;9.466;2024-03-22T14:27:39;3.80;;;2.28;;
18973;SDS011;9621;48.690;9.466;2024-03-22T14:30:07;4.05;;;2.22;;
18973;SDS011;9621;48.690;9.466;2024-03-22T14:32:36;5.75;;;2.28;;
18973;SDS011;9621;48.690;9.466;2024-03-22T14:35:02;3.95;;;2.20;;
18973;SDS011;9621;48.690;9.466;2024-03-22T14:37:29;5.97;;;2.25;;
18973;SDS011;9621;48.690;9.466;2024-03-22T14:39:56;4.03;;;2.45;;
18973;SDS011;9621;48.690;9.466;2024-03-22T14:42:24;3.35;;;2.08;;
18973;SDS011;9621;48.690;9.466;2024-03-22T14:44:50;2.97;;;1.95;;
18973;SDS011;9621;48.690;9.466;2024-03-22T14:47:17;4.60;;;2.10;;